createdAt,value
2018-06-01T00:00:43.197Z,82.93
2018-06-01T00:03:11.310Z,82.76
2018-06-01T00:05:39.443Z,82.85
2018-06-01T00:08:07.574Z,83.73
2018-06-01T00:10:35.686Z,83.47
2018-06-01T00:13:03.818Z,83.85
2018-06-01T00:15:31.943Z,83.58
2018-06-01T00:18:00.060Z,83.62
2018-06-01T00:20:28.176Z,83.57
2018-06-01T00:22:56.291Z,83.72
2018-06-01T00:25:24.408Z,84.22
2018-06-01T00:27:52.543Z,84.19
2018-06-01T00:30:20.643Z,84.10
2018-06-01T00:32:48.755Z,84.18
2018-06-01T00:35:16.865Z,84.56
2018-06-01T00:37:44.993Z,84.49
2018-06-01T00:40:13.099Z,84.27
2018-06-01T00:42:41.235Z,84.48
2018-06-01T00:45:09.379Z,84.42
2018-06-01T00:47:37.503Z,84.75
2018-06-01T00:50:05.623Z,85.05
2018-06-01T00:52:33.754Z,85.35
2018-06-01T00:55:13.698Z,85.72
2018-06-01T00:57:41.838Z,85.99
2018-06-01T01:00:09.945Z,86.52
2018-06-01T01:02:38.071Z,86.51
2018-06-01T01:05:06.272Z,86.66
2018-06-01T01:07:34.393Z,86.82
2018-06-01T01:10:02.528Z,86.69
2018-06-01T01:12:30.655Z,86.78
2018-06-01T01:14:58.756Z,86.69
2018-06-01T01:17:27.117Z,86.58
2018-06-01T01:19:55.253Z,86.73
2018-06-01T01:22:23.380Z,86.77
2018-06-01T01:24:51.997Z,87.05
2018-06-01T01:27:20.165Z,87.29
2018-06-01T01:29:48.291Z,87.48
2018-06-01T01:32:16.431Z,87.55
2018-06-01T01:34:44.555Z,87.54
2018-06-01T01:37:12.667Z,87.68
2018-06-01T01:39:40.841Z,87.69
2018-06-01T01:42:08.966Z,87.66
2018-06-01T01:44:37.104Z,87.49
2018-06-01T01:47:05.242Z,87.54
2018-06-01T01:49:33.360Z,87.59
2018-06-01T01:52:01.487Z,87.60
2018-06-01T01:54:29.627Z,87.59
2018-06-01T01:56:57.758Z,87.59
2018-06-01T01:59:25.863Z,88.05
2018-06-01T02:01:54.020Z,88.32
2018-06-01T02:04:22.137Z,88.33
2018-06-01T02:06:50.259Z,88.11
2018-06-01T02:09:18.414Z,88.18
2018-06-01T02:11:46.530Z,88.22
2018-06-01T02:14:14.652Z,88.21
2018-06-01T02:16:42.794Z,88.16
2018-06-01T02:19:10.915Z,88.17
2018-06-01T02:21:39.041Z,88.21
2018-06-01T02:24:07.179Z,88.14
2018-06-01T02:26:35.297Z,88.22
2018-06-01T02:29:03.429Z,88.28
2018-06-01T02:31:31.567Z,88.15
2018-06-01T02:33:59.697Z,88.20
2018-06-01T02:36:27.845Z,88.39
2018-06-01T02:38:56.172Z,88.64
2018-06-01T02:41:24.288Z,88.56
2018-06-01T02:43:52.411Z,89.38
2018-06-01T02:46:20.547Z,89.24
2018-06-01T02:48:48.733Z,89.15
2018-06-01T02:51:16.865Z,89.14
2018-06-01T02:53:44.983Z,89.29
2018-06-01T02:56:13.097Z,89.39
2018-06-01T02:58:41.230Z,89.37
2018-06-01T03:01:09.422Z,89.47
2018-06-01T03:03:37.565Z,89.54
2018-06-01T03:06:05.695Z,89.54
2018-06-01T03:08:33.831Z,89.46
2018-06-01T03:11:01.943Z,89.32
2018-06-01T03:13:30.072Z,89.35
2018-06-01T03:15:58.247Z,89.51
2018-06-01T03:18:26.369Z,89.27
2018-06-01T03:20:54.486Z,89.17
2018-06-01T03:23:22.602Z,89.24
2018-06-01T03:25:50.722Z,89.36
2018-06-01T03:28:18.846Z,89.32
2018-06-01T03:30:46.990Z,89.48
2018-06-01T03:33:15.113Z,89.48
2018-06-01T03:35:43.293Z,89.37
2018-06-01T03:38:11.442Z,89.20
2018-06-01T03:40:39.563Z,89.03
2018-06-01T03:43:07.689Z,89.22
2018-06-01T03:45:35.818Z,89.10
2018-06-01T03:48:03.930Z,88.87
2018-06-01T03:50:32.083Z,88.78
2018-06-01T03:53:00.219Z,88.85
2018-06-01T03:55:28.335Z,88.61
2018-06-01T03:57:56.465Z,88.56
2018-06-01T04:00:24.597Z,88.36
2018-06-01T04:02:52.771Z,88.11
2018-06-01T04:05:20.853Z,87.84
2018-06-01T04:07:48.994Z,87.32
2018-06-01T04:10:17.132Z,87.21
2018-06-01T04:12:45.249Z,86.65
2018-06-01T04:15:13.571Z,86.15
2018-06-01T04:17:41.687Z,85.74
2018-06-01T04:20:09.845Z,85.37
2018-06-01T04:22:37.961Z,85.23
2018-06-01T04:25:06.140Z,84.88
2018-06-01T04:27:34.294Z,84.25
2018-06-01T04:30:02.439Z,84.26
2018-06-01T04:32:30.560Z,83.94
2018-06-01T04:34:58.668Z,82.78
2018-06-01T04:37:26.854Z,82.66
2018-06-01T04:39:54.979Z,82.52
2018-06-01T04:42:23.144Z,81.96
2018-06-01T04:44:52.180Z,82.07
2018-06-01T04:47:20.303Z,82.33
2018-06-01T04:49:48.429Z,82.77
2018-06-01T04:52:16.570Z,82.57
2018-06-01T04:54:44.703Z,82.02
2018-06-01T04:57:12.836Z,81.74
2018-06-01T04:59:40.980Z,80.91
2018-06-01T05:02:09.098Z,79.81
2018-06-01T05:04:37.222Z,79.60
2018-06-01T05:07:05.368Z,79.09
2018-06-01T05:09:33.518Z,78.93
2018-06-01T05:12:01.666Z,79.06
2018-06-01T05:14:29.801Z,79.27
2018-06-01T05:16:57.924Z,79.72
2018-06-01T05:19:26.047Z,79.44
2018-06-01T05:21:54.197Z,79.55
2018-06-01T05:24:22.315Z,79.15
2018-06-01T05:26:50.429Z,78.43
2018-06-01T05:29:18.576Z,77.43
2018-06-01T05:31:46.714Z,77.53
2018-06-01T05:34:14.866Z,78.25
2018-06-01T05:36:43.008Z,76.20
2018-06-01T05:39:13.525Z,75.90
2018-06-01T05:41:41.652Z,75.45
2018-06-01T05:44:09.785Z,75.28
2018-06-01T05:46:37.930Z,75.85
2018-06-01T05:49:06.144Z,75.23
2018-06-01T05:51:34.260Z,75.46
2018-06-01T05:54:02.400Z,74.57
2018-06-01T05:56:30.547Z,73.89
2018-06-01T05:58:58.684Z,73.22
2018-06-01T06:01:26.817Z,72.77
2018-06-01T06:03:54.951Z,71.74
2018-06-01T06:06:23.114Z,71.46
2018-06-01T06:08:51.220Z,70.61
2018-06-01T06:11:19.330Z,71.25
2018-06-01T06:13:47.468Z,70.12
2018-06-01T06:16:15.601Z,69.59
2018-06-01T06:18:43.720Z,69.93
2018-06-01T06:21:11.854Z,69.26
2018-06-01T06:23:39.979Z,68.98
2018-06-01T06:26:08.129Z,68.58
2018-06-01T06:28:36.616Z,69.03
2018-06-01T06:31:04.734Z,68.55
2018-06-01T06:33:32.860Z,68.75
2018-06-01T06:36:00.990Z,67.45
2018-06-01T06:38:29.112Z,66.37
2018-06-01T06:40:57.228Z,67.17
2018-06-01T06:43:25.368Z,65.80
2018-06-01T06:45:53.479Z,65.12
2018-06-01T06:48:21.640Z,65.43
2018-06-01T06:50:49.784Z,65.37
2018-06-01T06:53:17.894Z,66.04
2018-06-01T06:55:46.006Z,64.82
2018-06-01T06:58:14.193Z,63.76
2018-06-01T07:00:42.300Z,63.51
2018-06-01T07:03:10.432Z,65.25
2018-06-01T07:05:38.602Z,63.83
2018-06-01T07:08:06.710Z,63.63
2018-06-01T07:10:34.874Z,62.55
2018-06-01T07:13:02.972Z,62.80
2018-06-01T07:15:31.089Z,62.69
2018-06-01T07:17:59.205Z,62.84
2018-06-01T07:20:27.331Z,63.47
2018-06-01T07:22:55.454Z,62.48
2018-06-01T07:25:23.630Z,62.69
2018-06-01T07:27:51.760Z,61.96
2018-06-01T07:30:19.880Z,62.88
2018-06-01T07:32:48.020Z,62.16
2018-06-01T07:35:16.145Z,63.79
2018-06-01T07:37:44.279Z,62.00
2018-06-01T07:40:12.373Z,62.53
2018-06-01T07:42:40.517Z,62.12
2018-06-01T07:45:08.637Z,63.11
2018-06-01T07:47:36.772Z,63.09
2018-06-01T07:50:04.940Z,62.24
2018-06-01T07:52:33.069Z,62.40
2018-06-01T07:55:01.201Z,61.62
2018-06-01T07:57:29.339Z,62.06
2018-06-01T07:59:57.450Z,61.61
2018-06-01T08:02:25.571Z,59.90
2018-06-01T08:04:53.683Z,60.00
2018-06-01T08:07:21.792Z,60.23
2018-06-01T08:09:50.346Z,59.32
2018-06-01T08:12:18.563Z,58.78
2018-06-01T08:14:46.718Z,58.99
2018-06-01T08:17:14.827Z,58.28
2018-06-01T08:19:42.949Z,58.50
2018-06-01T08:22:11.059Z,60.08
2018-06-01T08:24:39.170Z,58.67
2018-06-01T08:27:07.338Z,58.81
2018-06-01T08:29:35.470Z,59.09
2018-06-01T08:32:03.584Z,59.00
2018-06-01T08:34:31.717Z,59.81
2018-06-01T08:36:59.825Z,58.54
2018-06-01T08:39:27.971Z,58.71
2018-06-01T08:41:56.619Z,58.91
2018-06-01T08:44:24.727Z,59.12
2018-06-01T08:46:52.834Z,59.26
2018-06-01T08:49:20.967Z,58.87
2018-06-01T08:51:49.084Z,58.74
2018-06-01T08:54:17.186Z,58.62
2018-06-01T08:56:45.676Z,57.76
2018-06-01T08:59:14.706Z,58.24
2018-06-01T09:01:44.672Z,57.47
2018-06-01T09:04:12.861Z,57.37
2018-06-01T09:06:40.985Z,57.28
2018-06-01T09:09:09.112Z,57.59
2018-06-01T09:11:37.306Z,57.17
2018-06-01T09:14:05.422Z,57.53
2018-06-01T09:16:33.544Z,57.97
2018-06-01T09:19:01.665Z,57.23
2018-06-01T09:21:29.821Z,57.93
2018-06-01T09:23:57.949Z,57.83
2018-06-01T09:26:26.121Z,57.72
2018-06-01T09:28:54.277Z,57.95
2018-06-01T09:31:22.409Z,58.27
2018-06-01T09:33:50.552Z,57.83
2018-06-01T09:36:18.706Z,57.86
2018-06-01T09:38:46.871Z,59.34
2018-06-01T09:41:15.032Z,57.83
2018-06-01T09:43:43.135Z,57.64
2018-06-01T09:46:11.303Z,57.06
2018-06-01T09:48:39.427Z,56.93
2018-06-01T09:51:07.579Z,56.30
2018-06-01T09:53:35.722Z,56.28
2018-06-01T09:56:03.859Z,54.14
2018-06-01T09:58:32.145Z,54.75
2018-06-01T10:01:00.302Z,53.59
2018-06-01T10:03:28.479Z,54.06
2018-06-01T10:05:56.592Z,53.44
2018-06-01T10:08:24.731Z,52.14
2018-06-01T10:10:52.865Z,52.00
2018-06-01T10:13:21.063Z,52.65
2018-06-01T10:15:49.175Z,53.15
2018-06-01T10:18:17.371Z,52.21
2018-06-01T10:20:45.477Z,52.23
2018-06-01T10:23:14.666Z,53.04
2018-06-01T10:25:42.803Z,53.73
2018-06-01T10:28:10.914Z,53.60
2018-06-01T10:30:39.103Z,52.19
2018-06-01T10:33:07.665Z,52.29
2018-06-01T10:35:35.809Z,51.49
2018-06-01T10:38:03.965Z,51.75
2018-06-01T10:40:32.088Z,52.38
2018-06-01T10:43:00.202Z,52.20
2018-06-01T10:45:28.338Z,51.79
2018-06-01T10:47:56.482Z,52.39
2018-06-01T10:50:30.561Z,52.59
2018-06-01T10:52:58.719Z,51.90
2018-06-01T10:55:26.850Z,51.40
2018-06-01T10:57:55.039Z,50.42
2018-06-01T11:00:23.195Z,51.04
2018-06-01T11:02:51.346Z,50.06
2018-06-01T11:05:19.517Z,50.09
2018-06-01T11:07:47.667Z,49.95
2018-06-01T11:10:15.794Z,49.39
2018-06-01T11:12:43.920Z,50.34
2018-06-01T11:15:13.050Z,49.69
2018-06-01T11:17:41.186Z,50.19
2018-06-01T11:20:09.299Z,49.36
2018-06-01T11:22:38.070Z,51.04
2018-06-01T11:25:06.279Z,49.93
2018-06-01T11:27:34.395Z,50.20
2018-06-01T11:30:02.590Z,51.91
2018-06-01T11:32:30.755Z,51.52
2018-06-01T11:34:58.865Z,49.28
2018-06-01T11:37:27.043Z,50.76
2018-06-01T11:39:55.246Z,49.11
2018-06-01T11:42:23.448Z,50.05
2018-06-01T11:44:51.633Z,50.03
2018-06-01T11:47:19.779Z,51.04
2018-06-01T11:49:47.980Z,52.62
2018-06-01T11:52:16.209Z,51.49
2018-06-01T11:54:44.355Z,51.85
2018-06-01T11:57:13.421Z,50.86
2018-06-01T11:59:41.610Z,50.72
2018-06-01T12:02:09.789Z,50.33
2018-06-01T12:04:37.922Z,51.53
2018-06-01T12:07:06.199Z,51.80
2018-06-01T12:09:37.260Z,51.58
2018-06-01T12:12:05.518Z,51.07
2018-06-01T12:14:36.208Z,52.06
2018-06-01T12:17:04.668Z,52.07
2018-06-01T12:19:32.835Z,52.32
2018-06-01T12:22:01.363Z,52.83
2018-06-01T12:24:29.499Z,53.99
2018-06-01T12:26:57.616Z,53.54
2018-06-01T12:29:25.819Z,54.13
2018-06-01T12:31:53.978Z,54.92
2018-06-01T12:34:22.147Z,54.98
2018-06-01T12:36:50.374Z,55.20
2018-06-01T12:39:18.567Z,54.87
2018-06-01T12:41:46.716Z,54.47
2018-06-01T12:44:14.879Z,54.33
2018-06-01T12:46:43.002Z,54.17
2018-06-01T12:49:11.143Z,54.50
2018-06-01T12:51:39.292Z,55.54
2018-06-01T12:54:07.514Z,55.66
2018-06-01T12:56:35.580Z,55.17
2018-06-01T12:59:03.739Z,53.85
2018-06-01T13:01:31.869Z,54.69
2018-06-01T13:03:59.979Z,55.40
2018-06-01T13:06:28.155Z,55.41
2018-06-01T13:08:56.320Z,53.84
2018-06-01T13:11:24.433Z,53.24
2018-06-01T13:13:52.636Z,54.05
2018-06-01T13:16:20.994Z,54.03
2018-06-01T13:18:49.106Z,52.57
2018-06-01T13:21:17.304Z,52.95
2018-06-01T13:23:45.443Z,54.11
2018-06-01T13:26:13.545Z,53.30
2018-06-01T13:28:41.687Z,53.52
2018-06-01T13:31:09.835Z,53.09
2018-06-01T13:33:37.948Z,53.26
2018-06-01T13:36:06.112Z,52.30
2018-06-01T13:38:34.221Z,51.97
2018-06-01T13:41:02.335Z,52.42
2018-06-01T13:43:30.566Z,52.49
2018-06-01T13:45:59.505Z,53.67
2018-06-01T13:48:27.703Z,50.30
2018-06-01T13:50:55.824Z,51.48
2018-06-01T13:53:24.001Z,50.97
2018-06-01T13:55:52.116Z,50.25
2018-06-01T13:58:20.306Z,50.47
2018-06-01T14:00:48.426Z,50.53
2018-06-01T14:03:16.574Z,50.61
2018-06-01T14:05:44.712Z,49.85
2018-06-01T14:08:12.847Z,50.39
2018-06-01T14:10:40.953Z,50.84
2018-06-01T14:13:09.106Z,50.47
2018-06-01T14:15:37.282Z,51.24
2018-06-01T14:18:05.439Z,51.88
2018-06-01T14:20:33.566Z,51.87
2018-06-01T14:23:01.690Z,51.86
2018-06-01T14:25:29.852Z,51.97
2018-06-01T14:27:59.023Z,52.08
2018-06-01T14:30:27.135Z,52.06
2018-06-01T14:32:55.260Z,51.99
2018-06-01T14:35:23.415Z,53.17
2018-06-01T14:37:51.542Z,53.13
2018-06-01T14:40:19.680Z,52.45
2018-06-01T14:42:48.514Z,53.30
2018-06-01T14:45:16.668Z,52.59
2018-06-01T14:47:44.772Z,52.74
2018-06-01T14:50:12.897Z,53.36
2018-06-01T14:52:41.021Z,52.75
2018-06-01T14:55:09.136Z,53.66
2018-06-01T14:57:37.267Z,52.95
2018-06-01T15:00:05.410Z,52.80
2018-06-01T15:02:33.505Z,53.12
2018-06-01T15:05:01.676Z,53.25
2018-06-01T15:07:30.723Z,53.16
2018-06-01T15:09:58.844Z,52.47
2018-06-01T15:12:27.007Z,52.21
2018-06-01T15:14:55.281Z,52.28
2018-06-01T15:17:23.377Z,52.19
2018-06-01T15:19:51.562Z,50.88
2018-06-01T15:22:19.677Z,52.40
2018-06-01T15:24:47.818Z,50.78
2018-06-01T15:27:15.972Z,50.04
2018-06-01T15:29:44.108Z,50.00
2018-06-01T15:32:12.242Z,52.20
2018-06-01T15:34:40.384Z,51.99
2018-06-01T15:37:08.499Z,50.52
2018-06-01T15:39:36.647Z,50.42
2018-06-01T15:42:04.772Z,50.14
2018-06-01T15:44:32.887Z,50.81
2018-06-01T15:47:01.036Z,51.11
2018-06-01T15:49:29.188Z,50.96
2018-06-01T15:51:57.304Z,51.29
2018-06-01T15:54:25.463Z,51.44
2018-06-01T15:56:53.626Z,51.57
2018-06-01T15:59:21.770Z,51.78
2018-06-01T16:01:50.907Z,51.85
2018-06-01T16:04:19.051Z,51.85
2018-06-01T16:06:47.180Z,51.78
2018-06-01T16:09:15.295Z,52.53
2018-06-01T16:11:43.436Z,52.95
2018-06-01T16:14:11.588Z,53.79
2018-06-01T16:16:39.763Z,53.70
2018-06-01T16:19:07.898Z,52.83
2018-06-01T16:21:36.039Z,53.51
2018-06-01T16:24:04.161Z,53.13
2018-06-01T16:26:32.323Z,53.38
2018-06-01T16:29:00.828Z,53.65
2018-06-01T16:31:28.960Z,53.05
2018-06-01T16:33:57.112Z,53.30
2018-06-01T16:36:25.247Z,53.06
2018-06-01T16:38:53.356Z,52.25
2018-06-01T16:41:21.567Z,52.25
2018-06-01T16:43:49.704Z,52.78
2018-06-01T16:46:17.840Z,52.93
2018-06-01T16:48:46.068Z,53.23
2018-06-01T16:51:14.184Z,52.62
2018-06-01T16:53:42.345Z,52.44
2018-06-01T16:56:10.482Z,53.61
2018-06-01T16:58:38.624Z,54.01
2018-06-01T17:01:06.775Z,53.16
2018-06-01T17:03:34.915Z,53.71
2018-06-01T17:06:03.031Z,54.36
2018-06-01T17:08:31.191Z,53.54
2018-06-01T17:10:59.310Z,54.51
2018-06-01T17:13:27.446Z,53.98
2018-06-01T17:15:55.573Z,53.99
2018-06-01T17:18:23.717Z,54.39
2018-06-01T17:20:51.848Z,54.28
2018-06-01T17:23:19.989Z,54.64
2018-06-01T17:25:48.185Z,54.60
2018-06-01T17:28:16.347Z,55.33
2018-06-01T17:30:44.478Z,55.54
2018-06-01T17:33:12.651Z,55.89
2018-06-01T17:35:40.808Z,55.88
2018-06-01T17:38:08.920Z,56.29
2018-06-01T17:40:37.036Z,56.65
2018-06-01T17:43:05.190Z,57.19
2018-06-01T17:45:33.364Z,57.43
2018-06-01T17:48:01.479Z,57.63
2018-06-01T17:50:29.593Z,57.04
2018-06-01T17:52:57.717Z,56.90
2018-06-01T17:55:25.931Z,57.42
2018-06-01T17:57:54.072Z,57.09
2018-06-01T18:00:22.204Z,57.53
2018-06-01T18:02:50.346Z,57.94
2018-06-01T18:05:18.476Z,58.68
2018-06-01T18:07:46.625Z,58.94
2018-06-01T18:10:14.795Z,58.97
2018-06-01T18:12:42.901Z,59.76
2018-06-01T18:15:11.023Z,60.21
2018-06-01T18:17:39.195Z,60.03
2018-06-01T18:20:07.304Z,60.61
2018-06-01T18:22:35.492Z,60.77
2018-06-01T18:25:03.581Z,60.94
2018-06-01T18:27:31.702Z,61.32
2018-06-01T18:29:59.810Z,62.07
2018-06-01T18:32:27.953Z,62.63
2018-06-01T18:34:56.071Z,63.32
2018-06-01T18:37:24.215Z,63.32
2018-06-01T18:39:53.548Z,63.71
2018-06-01T18:42:21.720Z,64.40
2018-06-01T18:44:49.850Z,64.52
2018-06-01T18:47:17.974Z,64.57
2018-06-01T18:49:46.074Z,65.74
2018-06-01T18:52:14.219Z,66.04
2018-06-01T18:54:42.400Z,66.10
2018-06-01T18:57:10.527Z,66.33
2018-06-01T18:59:38.637Z,66.83
2018-06-01T19:02:06.784Z,67.39
2018-06-01T19:04:34.901Z,67.68
2018-06-01T19:07:03.005Z,68.26
2018-06-01T19:09:31.878Z,68.75
2018-06-01T19:12:00.000Z,68.79
2018-06-01T19:14:28.125Z,69.23
2018-06-01T19:16:56.275Z,69.28
2018-06-01T19:19:24.391Z,69.80
2018-06-01T19:21:52.530Z,69.97
2018-06-01T19:24:20.670Z,69.84
2018-06-01T19:26:48.789Z,69.73
2018-06-01T19:29:16.913Z,70.51
2018-06-01T19:31:45.042Z,70.52
2018-06-01T19:34:13.170Z,70.74
2018-06-01T19:36:41.280Z,70.98
2018-06-01T19:39:09.425Z,71.59
2018-06-01T19:41:37.550Z,71.90
2018-06-01T19:44:05.693Z,72.31
2018-06-01T19:46:33.811Z,72.87
2018-06-01T19:49:01.935Z,72.97
2018-06-01T19:51:30.064Z,73.12
2018-06-01T19:53:58.204Z,73.29
2018-06-01T19:56:26.337Z,73.60
2018-06-01T19:58:54.602Z,73.94
2018-06-01T20:01:22.836Z,74.57
2018-06-01T20:03:50.978Z,74.86
2018-06-01T20:06:19.101Z,75.04
2018-06-01T20:08:47.229Z,75.00
2018-06-01T20:11:15.382Z,75.23
2018-06-01T20:13:43.497Z,75.30
2018-06-01T20:16:11.642Z,76.46
2018-06-01T20:18:39.787Z,76.92
2018-06-01T20:21:07.977Z,77.24
2018-06-01T20:23:36.116Z,77.50
2018-06-01T20:26:04.273Z,77.55
2018-06-01T20:28:32.390Z,77.83
2018-06-01T20:31:00.555Z,77.56
2018-06-01T20:33:28.673Z,77.71
2018-06-01T20:35:56.807Z,77.96
2018-06-01T20:38:24.946Z,78.12
2018-06-01T20:40:53.074Z,78.09
2018-06-01T20:43:21.201Z,78.24
2018-06-01T20:45:49.347Z,78.76
2018-06-01T20:48:17.470Z,79.33
2018-06-01T20:50:45.601Z,79.87
2018-06-01T20:53:13.747Z,80.25
2018-06-01T20:55:41.862Z,80.61
2018-06-01T20:58:09.998Z,81.09
2018-06-01T21:00:38.138Z,81.38
2018-06-01T21:03:06.294Z,81.59
2018-06-01T21:05:34.440Z,81.17
2018-06-01T21:08:02.559Z,81.30
2018-06-01T21:10:30.671Z,81.63
2018-06-01T21:12:58.787Z,81.43
2018-06-01T21:15:26.924Z,81.11
2018-06-01T21:17:55.049Z,81.16
2018-06-01T21:20:23.166Z,81.14
2018-06-01T21:22:51.310Z,81.33
2018-06-01T21:25:19.442Z,81.18
2018-06-01T21:27:47.579Z,81.34
2018-06-01T21:30:15.735Z,81.33
2018-06-01T21:32:43.857Z,81.45
2018-06-01T21:35:11.997Z,81.78
2018-06-01T21:37:40.123Z,82.05
2018-06-01T21:40:08.247Z,82.10
2018-06-01T21:42:36.384Z,82.42
2018-06-01T21:45:04.528Z,82.64
2018-06-01T21:47:32.654Z,82.82
2018-06-01T21:50:00.802Z,82.94
2018-06-01T21:52:28.962Z,83.44
2018-06-01T21:54:57.095Z,83.65
2018-06-01T21:57:25.233Z,83.96
2018-06-01T21:59:53.380Z,83.97
2018-06-01T22:02:21.511Z,83.83
2018-06-01T22:04:49.687Z,83.78
2018-06-01T22:07:17.823Z,83.72
2018-06-01T22:09:46.071Z,83.79
2018-06-01T22:12:14.150Z,83.76
2018-06-01T22:14:43.356Z,84.07
2018-06-01T22:17:11.491Z,84.27
2018-06-01T22:19:39.777Z,84.33
2018-06-01T22:22:07.931Z,84.47
2018-06-01T22:24:36.237Z,84.57
2018-06-01T22:27:04.375Z,84.64
2018-06-01T22:29:32.562Z,84.85
2018-06-01T22:32:00.701Z,85.19
2018-06-01T22:34:28.834Z,85.48
2018-06-01T22:36:56.976Z,85.37
2018-06-01T22:39:25.135Z,85.39
2018-06-01T22:41:53.258Z,85.50
2018-06-01T22:44:21.387Z,85.49
2018-06-01T22:46:49.544Z,85.47
2018-06-01T22:49:17.659Z,85.40
2018-06-01T22:51:45.798Z,85.49
2018-06-01T22:54:13.934Z,85.56
2018-06-01T22:56:42.058Z,85.76
2018-06-01T22:59:10.193Z,85.88
2018-06-01T23:01:38.329Z,85.85
2018-06-01T23:04:06.447Z,85.92
2018-06-01T23:06:34.589Z,85.66
2018-06-01T23:09:02.713Z,85.59
2018-06-01T23:11:30.833Z,85.41
2018-06-01T23:13:58.957Z,85.38
2018-06-01T23:16:27.082Z,85.28
2018-06-01T23:18:55.192Z,85.41
2018-06-01T23:21:23.315Z,85.43
2018-06-01T23:23:51.467Z,85.42
2018-06-01T23:26:19.606Z,85.34
2018-06-01T23:28:47.765Z,85.36
2018-06-01T23:31:15.869Z,85.35
2018-06-01T23:33:43.982Z,85.23
2018-06-01T23:36:12.134Z,85.15
2018-06-01T23:38:40.254Z,85.25
2018-06-01T23:41:08.439Z,85.30
2018-06-01T23:43:36.569Z,85.46
2018-06-01T23:46:04.693Z,85.70
2018-06-01T23:48:32.915Z,85.85
2018-06-01T23:51:01.049Z,85.97
2018-06-01T23:53:29.197Z,85.77
2018-06-01T23:55:57.344Z,85.88
2018-06-01T23:58:25.532Z,86.09
